Time;durP1;ratioP1;P1;durP2;ratioP2;P2;SDS_P1;SDS_P2;PMS_P1;PMS_P2;Temp;Humidity;BMP_temperature;BMP_pressure;BME280_temperature;BME280_humidity;BME280_pressure;Samples;Min_cycle;Max_cycle;Signal;HPM_P1;HPM_P2
2021/07/30 00:02:19;;;;;;;5.85;4.10;;;;;;;16.44;88.38;95899.00;5151058;57;20172;-73
2021/07/30 00:07:21;;;;;;;6.25;3.83;;;;;;;16.48;87.80;95896.72;5150303;57;20121;-73
2021/07/30 00:12:24;;;;;;;6.78;4.47;;;;;;;16.47;88.01;95895.19;5159136;57;20129;-74
2021/07/30 00:17:26;;;;;;;4.22;3.83;;;;;;;16.45;87.73;95901.28;5158893;57;20116;-73
2021/07/30 00:22:29;;;;;;;4.45;3.75;;;;;;;16.46;87.55;95899.25;5159094;57;20138;-72
2021/07/30 00:27:32;;;;;;;4.80;3.90;;;;;;;16.69;86.21;95886.75;5158874;57;20696;-73
2021/07/30 00:32:34;;;;;;;5.55;4.00;;;;;;;16.70;86.09;95896.66;5158554;57;20693;-73
2021/07/30 00:37:38;;;;;;;4.32;3.63;;;;;;;16.70;86.46;95890.31;5159208;57;20108;-73
2021/07/30 00:42:51;;;;;;;5.15;3.90;;;;;;;16.64;87.12;95893.13;5150242;57;20125;-73
2021/07/30 00:47:53;;;;;;;4.47;4.03;;;;;;;16.58;86.52;95902.81;5158918;57;20125;-73
2021/07/30 00:52:56;;;;;;;5.68;4.60;;;;;;;16.45;87.38;95900.50;5158639;57;20668;-73
2021/07/30 00:57:58;;;;;;;6.68;4.78;;;;;;;16.37;87.07;95902.31;5149982;57;20125;-73
2021/07/30 01:03:02;;;;;;;6.47;4.90;;;;;;;16.24;88.54;95900.03;5158544;57;20129;-73
2021/07/30 01:08:05;;;;;;;7.22;4.63;;;;;;;16.21;88.58;95901.09;5149085;57;20146;-73
2021/07/30 01:13:07;;;;;;;5.43;4.32;;;;;;;16.31;87.83;95899.53;5158297;57;20609;-73
2021/07/30 01:18:10;;;;;;;8.40;4.50;;;;;;;16.25;88.26;95896.00;5158158;57;20129;-73
2021/07/30 01:23:13;;;;;;;5.20;4.53;;;;;;;16.29;88.36;95895.72;5158118;57;20134;-73
2021/07/30 01:28:15;;;;;;;5.95;4.38;;;;;;;16.26;88.10;95905.88;5158288;57;20139;-72
2021/07/30 01:33:18;;;;;;;7.00;4.65;;;;;;;16.33;87.96;95899.00;5174169;57;20126;-73
2021/07/30 01:38:20;;;;;;;7.03;4.35;;;;;;;16.42;87.88;95890.38;5172051;57;20143;-73
2021/07/30 01:43:22;;;;;;;10.52;4.75;;;;;;;16.28;88.68;95899.81;5161449;57;20702;-73
2021/07/30 01:48:25;;;;;;;5.57;4.50;;;;;;;16.26;88.64;95880.78;5161274;57;20121;-72
2021/07/30 01:53:27;;;;;;;5.82;5.05;;;;;;;16.24;88.95;95888.13;5161245;57;20133;-73
2021/07/30 01:58:33;;;;;;;7.75;4.78;;;;;;;16.28;89.51;95883.81;5160850;57;20125;-73
2021/07/30 02:03:35;;;;;;;7.30;4.40;;;;;;;16.27;89.85;95887.13;5161107;57;20147;-72
2021/07/30 02:08:38;;;;;;;8.18;4.72;;;;;;;16.25;89.24;95895.25;5160835;57;20138;-73
2021/07/30 02:19:01;;;;;;;10.25;5.65;;;;;;;16.44;88.49;95896.22;5160723;57;20121;-73
2021/07/30 02:24:05;;;;;;;5.07;4.57;;;;;;;16.44;88.74;95887.84;5161093;57;20134;-74
2021/07/30 02:29:07;;;;;;;5.25;4.70;;;;;;;16.29;89.34;95901.31;5160587;57;20125;-74
2021/07/30 02:34:10;;;;;;;8.85;5.35;;;;;;;16.24;89.57;95911.19;5160715;57;20129;-73
2021/07/30 02:39:16;;;;;;;6.38;5.20;;;;;;;16.14;89.45;95906.41;5160397;57;20730;-73
2021/07/30 02:44:19;;;;;;;6.90;5.70;;;;;;;16.17;90.38;95905.41;5160500;57;20617;-74
2021/07/30 02:49:21;;;;;;;7.35;5.32;;;;;;;16.20;90.77;95909.94;5160314;57;20658;-74
2021/07/30 02:54:23;;;;;;;8.07;5.70;;;;;;;16.38;90.44;95920.56;5159978;57;20658;-73
2021/07/30 02:59:25;;;;;;;7.97;6.07;;;;;;;16.38;90.31;95926.91;5160252;57;20702;-74
2021/07/30 03:04:28;;;;;;;6.55;5.57;;;;;;;16.38;90.21;95934.50;5160184;57;20582;-73
2021/07/30 03:09:30;;;;;;;6.65;5.97;;;;;;;16.35;90.52;95930.69;5160018;57;20585;-72
2021/07/30 03:14:32;;;;;;;9.00;6.10;;;;;;;16.62;88.69;95928.41;5159963;57;20151;-73
2021/07/30 03:19:35;;;;;;;8.00;5.60;;;;;;;16.57;88.73;95929.94;5159746;57;20647;-73
2021/07/30 03:24:37;;;;;;;6.80;5.63;;;;;;;16.55;88.97;95935.25;5160125;57;20134;-74
2021/07/30 03:29:40;;;;;;;6.32;5.45;;;;;;;16.33;89.50;95936.03;5159907;57;20175;-74
2021/07/30 03:34:43;;;;;;;6.97;5.22;;;;;;;16.30;89.32;95933.50;5159807;57;20667;-72
2021/07/30 03:39:45;;;;;;;7.25;5.07;;;;;;;16.39;88.79;95950.72;5159683;57;20139;-72
2021/07/30 03:44:47;;;;;;;10.48;5.68;;;;;;;16.32;89.00;95933.75;5159522;57;20130;-72
2021/07/30 03:49:50;;;;;;;6.15;5.43;;;;;;;16.30;88.50;95939.09;5159584;57;20151;-73
2021/07/30 03:54:52;;;;;;;7.47;5.05;;;;;;;16.26;89.12;95933.00;5159227;57;20125;-73
2021/07/30 03:59:55;;;;;;;6.40;5.38;;;;;;;16.30;88.63;95937.06;5159435;57;20112;-73
2021/07/30 04:05:01;;;;;;;6.70;5.13;;;;;;;16.30;88.07;95927.94;5158414;57;20142;-74
2021/07/30 04:10:04;;;;;;;7.90;5.15;;;;;;;16.23;88.35;95943.16;5159210;57;20133;-73
2021/07/30 04:15:07;;;;;;;7.07;5.38;;;;;;;16.17;88.57;95936.06;5164023;57;20218;-73
2021/07/30 04:20:10;;;;;;;7.13;5.40;;;;;;;16.19;88.31;95919.59;5159093;57;20671;-73
2021/07/30 04:25:13;;;;;;;5.22;4.72;;;;;;;16.48;87.69;95919.03;5158795;57;20130;-73
2021/07/30 04:30:15;;;;;;;6.30;5.43;;;;;;;16.67;87.67;95925.56;5170552;57;20128;-73
2021/07/30 04:35:17;;;;;;;6.38;5.78;;;;;;;16.95;86.29;95917.09;5179041;57;20141;-73
2021/07/30 04:40:20;;;;;;;6.22;5.28;;;;;;;17.11;86.12;95933.03;5179136;57;20147;-73
2021/07/30 04:45:22;;;;;;;7.05;5.47;;;;;;;17.20;86.22;95935.53;5178731;57;20563;-73
2021/07/30 04:50:24;;;;;;;5.97;5.15;;;;;;;17.12;86.55;95915.75;5179030;57;20120;-73
2021/07/30 04:55:27;;;;;;;6.15;5.55;;;;;;;17.09;86.50;95932.78;5178740;57;20701;-74
2021/07/30 05:00:29;;;;;;;8.02;5.03;;;;;;;16.96;86.98;95932.59;5178941;57;20137;-73
2021/07/30 05:05:32;;;;;;;7.60;5.05;;;;;;;17.10;86.49;95915.50;5178461;57;20133;-73
2021/07/30 05:10:34;;;;;;;8.07;5.32;;;;;;;17.21;85.66;95923.06;5178682;57;20128;-73
2021/07/30 05:15:37;;;;;;;5.93;4.97;;;;;;;17.52;84.92;95930.28;5179236;57;20133;-73
2021/07/30 05:20:41;;;;;;;6.45;5.20;;;;;;;17.92;83.52;95923.91;5181902;57;20142;-73
2021/07/30 05:25:52;;;;;;;7.80;5.57;;;;;;;18.30;82.53;95919.22;5181859;57;20142;-73
2021/07/30 05:30:57;;;;;;;8.43;5.72;;;;;;;18.33;81.53;95929.38;5182137;57;20133;-73
2021/07/30 05:35:59;;;;;;;6.55;5.05;;;;;;;18.65;80.11;95921.22;5181493;57;20133;-73
2021/07/30 05:41:02;;;;;;;8.20;4.72;;;;;;;18.89;77.73;95907.94;5172988;57;20133;-73
2021/07/30 05:46:04;;;;;;;6.00;5.13;;;;;;;18.76;79.44;95919.03;5181179;57;20132;-72
2021/07/30 05:51:09;;;;;;;5.72;4.75;;;;;;;18.96;78.59;95909.38;5181618;57;20677;-72
2021/07/30 05:56:11;;;;;;;5.68;5.05;;;;;;;18.80;77.97;95904.75;5172617;57;20120;-73
2021/07/30 06:01:14;;;;;;;5.28;4.70;;;;;;;18.86;78.63;95916.66;5181290;57;20150;-73
2021/07/30 06:06:20;;;;;;;6.68;4.22;;;;;;;19.05;76.78;95906.97;5172586;57;20767;-73
2021/07/30 06:11:23;;;;;;;5.03;4.55;;;;;;;19.15;77.38;95910.16;5181646;57;20133;-75
2021/07/30 06:16:25;;;;;;;6.43;4.55;;;;;;;19.34;77.32;95905.31;5180960;57;20219;-75
2021/07/30 06:21:37;;;;;;;4.97;4.40;;;;;;;19.51;77.31;95917.09;5181229;57;20146;-75
2021/07/30 06:26:39;;;;;;;7.95;4.82;;;;;;;19.68;75.51;95906.38;5180560;57;20673;-75
2021/07/30 06:31:42;;;;;;;6.85;4.40;;;;;;;19.99;74.76;95900.00;5180938;57;20213;-75
2021/07/30 06:36:44;;;;;;;5.00;4.50;;;;;;;20.07;73.17;95896.59;5182194;57;20124;-74
2021/07/30 06:41:47;;;;;;;6.32;4.60;;;;;;;20.15;72.32;95908.72;5208709;57;20132;-75
2021/07/30 06:46:49;;;;;;;7.30;4.15;;;;;;;20.34;72.84;95912.22;5198047;57;20111;-75
2021/07/30 06:51:52;;;;;;;6.80;4.90;;;;;;;20.60;71.10;95923.50;5181296;57;20128;-75
2021/07/30 06:56:54;;;;;;;6.18;4.68;;;;;;;20.92;70.61;95914.97;5180488;57;20129;-75
2021/07/30 07:01:57;;;;;;;4.95;4.47;;;;;;;21.05;70.99;95912.94;5180658;57;20146;-75
2021/07/30 07:06:59;;;;;;;7.78;5.15;;;;;;;21.13;69.64;95913.00;5171045;57;20110;-76
2021/07/30 07:12:02;;;;;;;8.93;5.07;;;;;;;21.40;70.17;95922.91;5180433;57;20115;-76
2021/07/30 07:17:05;;;;;;;7.15;4.53;;;;;;;21.62;68.07;95911.16;5180169;57;20124;-76
2021/07/30 07:22:07;;;;;;;9.75;4.82;;;;;;;21.91;68.53;95901.59;5180535;57;20159;-76
2021/07/30 07:27:10;;;;;;;5.65;5.05;;;;;;;22.22;66.27;95902.59;5180110;57;20115;-75
2021/07/30 07:32:12;;;;;;;5.45;4.57;;;;;;;22.34;65.07;95898.22;5180311;57;20128;-76
2021/07/30 07:37:15;;;;;;;6.50;4.82;;;;;;;22.30;65.54;95900.59;5179783;57;20111;-76
2021/07/30 07:42:17;;;;;;;5.35;4.78;;;;;;;22.66;65.10;95901.47;5167756;57;20151;-76
2021/07/30 07:47:19;;;;;;;5.22;4.72;;;;;;;23.10;66.14;95893.06;5170608;57;20120;-76
2021/07/30 07:52:22;;;;;;;7.95;5.28;;;;;;;23.29;65.49;95888.66;5160149;57;20120;-76
2021/07/30 07:57:33;;;;;;;5.97;4.75;;;;;;;23.53;64.17;95888.22;5154445;57;20732;-76
2021/07/30 08:02:36;;;;;;;7.10;5.10;;;;;;;23.98;60.63;95887.56;5154940;57;21704;-76
2021/07/30 08:07:40;;;;;;;8.10;5.13;;;;;;;24.21;58.16;95894.03;5154471;57;20230;-76
2021/07/30 08:12:43;;;;;;;8.63;5.20;;;;;;;25.31;58.54;95893.50;5155328;57;20207;-76
2021/07/30 08:17:45;;;;;;;6.68;4.95;;;;;;;26.10;54.08;95898.41;5151182;57;21254;-77
2021/07/30 08:22:47;;;;;;;7.15;5.43;;;;;;;26.55;51.93;95895.22;5142377;57;20133;-77
2021/07/30 08:27:50;;;;;;;6.35;4.15;;;;;;;26.03;52.98;95891.44;5154994;57;20215;-77
2021/07/30 08:32:52;;;;;;;6.25;4.90;;;;;;;27.09;51.36;95901.19;5148990;57;20235;-76
2021/07/30 08:37:55;;;;;;;4.38;3.97;;;;;;;27.45;50.37;95899.28;5156277;57;20129;-76
2021/07/30 08:43:00;;;;;;;5.85;4.43;;;;;;;27.53;49.65;95894.25;5158603;57;20198;-77
2021/07/30 08:48:03;;;;;;;5.65;4.03;;;;;;;28.79;47.65;95891.47;5156727;57;20841;-77
2021/07/30 08:53:06;;;;;;;4.80;4.40;;;;;;;28.12;48.69;95893.28;5169593;57;20137;-77
2021/07/30 08:58:12;;;;;;;4.47;4.07;;;;;;;28.54;47.07;95890.19;5158183;57;20134;-77
2021/07/30 09:03:14;;;;;;;6.32;4.55;;;;;;;27.60;50.12;95881.31;5170314;57;20160;-77
2021/07/30 09:08:24;;;;;;;7.30;4.88;;;;;;;28.67;46.87;95879.19;5159442;57;20200;-77
2021/07/30 09:13:27;;;;;;;7.47;4.63;;;;;;;28.86;48.13;95882.06;5160315;57;20133;-77
2021/07/30 09:18:40;;;;;;;5.65;4.80;;;;;;;28.26;49.02;95880.97;5158383;57;20134;-77
2021/07/30 09:23:55;;;;;;;6.15;4.55;;;;;;;29.18;46.34;95880.16;5150849;57;20129;-77
2021/07/30 09:29:02;;;;;;;8.48;4.28;;;;;;;30.07;46.89;95878.91;5160695;57;20108;-77
2021/07/30 09:34:16;;;;;;;4.68;4.28;;;;;;;30.99;44.67;95864.69;5158065;57;20126;-79
2021/07/30 09:39:25;;;;;;;25.33;8.82;;;;;;;30.44;44.82;95865.91;5159176;57;20129;-76
2021/07/30 09:44:28;;;;;;;9.93;5.55;;;;;;;30.34;46.34;95851.69;5157145;57;20164;-77
2021/07/30 09:49:46;;;;;;;4.82;4.10;;;;;;;30.34;44.13;95845.97;5159175;57;20121;-76
2021/07/30 09:54:54;;;;;;;5.32;4.82;;;;;;;30.99;42.76;95851.16;5170354;57;20629;-77
2021/07/30 09:59:58;;;;;;;4.40;4.10;;;;;;;31.28;46.61;95850.22;5168623;57;20125;-77
2021/07/30 10:05:04;;;;;;;5.68;4.97;;;;;;;31.52;42.03;95846.09;5159776;57;20138;-77
2021/07/30 10:15:11;;;;;;;5.80;4.15;;;;;;;31.10;44.49;95836.22;5182546;57;20129;-76
2021/07/30 10:20:15;;;;;;;6.15;4.55;;;;;;;31.74;41.84;95824.69;5181988;57;20692;-76
2021/07/30 10:25:31;;;;;;;5.68;4.68;;;;;;;31.85;39.66;95809.66;5178936;57;20259;-76
2021/07/30 10:30:52;;;;;;;5.75;4.30;;;;;;;32.07;38.66;95808.22;5162712;57;20208;-77
2021/07/30 10:35:55;;;;;;;4.50;4.10;;;;;;;32.09;42.29;95801.91;5179017;57;20124;-77
2021/07/30 10:40:57;;;;;;;5.30;4.80;;;;;;;31.17;42.18;95789.56;5183512;57;20128;-80
2021/07/30 10:46:09;;;;;;;4.20;3.85;;;;;;;30.88;45.02;95791.91;5174754;57;20132;-77
2021/07/30 10:51:27;;;;;;;4.68;4.25;;;;;;;30.04;41.66;95788.91;5177921;57;20136;-77
2021/07/30 10:56:30;;;;;;;4.97;4.47;;;;;;;30.57;41.68;95782.66;5165442;57;20238;-78
2021/07/30 11:01:38;;;;;;;6.43;4.65;;;;;;;30.35;40.98;95775.44;5163833;57;20142;-78
2021/07/30 11:06:40;;;;;;;4.60;4.20;;;;;;;30.96;40.01;95768.91;5162744;57;20125;-79
2021/07/30 11:11:47;;;;;;;4.65;4.25;;;;;;;31.36;41.26;95770.78;5162757;57;20153;-78
2021/07/30 11:16:55;;;;;;;4.50;4.10;;;;;;;31.23;40.04;95759.94;5162192;57;20672;-79
2021/07/30 11:22:06;;;;;;;4.25;3.85;;;;;;;32.23;38.95;95766.34;5154830;57;20584;-78
2021/07/30 11:27:11;;;;;;;4.40;4.00;;;;;;;32.13;36.05;95760.03;5162979;57;20910;-78
2021/07/30 11:32:16;;;;;;;4.45;3.97;;;;;;;32.44;38.05;95762.59;5171616;57;20125;-79
2021/07/30 11:37:25;;;;;;;4.57;4.18;;;;;;;33.35;36.10;95754.41;5163458;57;20129;-79
2021/07/30 11:42:37;;;;;;;4.22;3.85;;;;;;;32.86;36.27;95750.09;5163432;57;20657;-79
2021/07/30 11:47:40;;;;;;;4.35;3.97;;;;;;;32.21;37.51;95729.06;5161525;57;20282;-78
2021/07/30 11:52:42;;;;;;;4.78;4.28;;;;;;;32.85;35.32;95742.88;5176041;57;20205;-78
2021/07/30 11:57:48;;;;;;;4.30;3.90;;;;;;;33.49;36.41;95743.75;5189299;57;20112;-80
2021/07/30 12:02:50;;;;;;;4.10;3.80;;;;;;;32.90;35.46;95728.19;5188592;57;20120;-80
2021/07/30 12:07:56;;;;;;;4.40;3.75;;;;;;;33.03;36.17;95721.81;5182470;57;20128;-81
2021/07/30 12:13:00;;;;;;;4.63;4.00;;;;;;;31.97;36.19;95718.25;5171592;57;20112;-81
2021/07/30 12:18:04;;;;;;;5.43;3.78;;;;;;;32.90;35.33;95704.53;5168421;57;20121;-81
2021/07/30 12:23:12;;;;;;;4.18;3.80;;;;;;;32.10;32.59;95714.75;5168627;57;20140;-81
2021/07/30 12:28:16;;;;;;;3.72;3.42;;;;;;;33.98;33.28;95695.56;5166174;57;20125;-81
2021/07/30 12:33:30;;;;;;;5.28;3.95;;;;;;;32.39;33.65;95698.69;5179628;57;20657;-81
2021/07/30 12:38:33;;;;;;;4.40;3.83;;;;;;;31.72;35.41;95687.41;5175988;57;20121;-80
2021/07/30 12:43:36;;;;;;;4.47;3.67;;;;;;;31.58;35.18;95673.00;5163710;57;20179;-80
2021/07/30 12:48:48;;;;;;;4.55;4.15;;;;;;;31.11;37.70;95663.59;5159979;57;20116;-82
2021/07/30 12:54:04;;;;;;;4.93;3.97;;;;;;;31.49;33.01;95651.00;5175442;57;20116;-81
2021/07/30 12:59:06;;;;;;;7.30;4.05;;;;;;;30.68;35.15;95650.03;5162596;57;20120;-81
2021/07/30 13:04:11;;;;;;;3.90;3.60;;;;;;;31.44;37.42;95654.22;5164696;57;20593;-81
2021/07/30 13:09:13;;;;;;;3.95;3.60;;;;;;;32.31;34.61;95641.03;5168370;57;20115;-81
2021/07/30 13:14:15;;;;;;;3.70;3.40;;;;;;;32.73;31.68;95639.13;5184982;57;20129;-81
2021/07/30 13:19:18;;;;;;;4.07;3.67;;;;;;;32.10;36.61;95631.84;5184636;57;20544;-81
2021/07/30 13:24:21;;;;;;;3.88;3.58;;;;;;;32.61;35.10;95610.59;5169493;57;20143;-81
2021/07/30 13:29:23;;;;;;;4.22;3.88;;;;;;;33.00;32.71;95610.63;5169772;57;20146;-80
2021/07/30 13:34:25;;;;;;;3.78;3.47;;;;;;;32.41;34.02;95601.56;5183807;57;20138;-80
2021/07/30 13:39:28;;;;;;;5.75;3.92;;;;;;;32.60;36.33;95594.03;5188053;57;20129;-80
2021/07/30 13:44:30;;;;;;;5.10;3.78;;;;;;;31.40;35.35;95582.56;5180818;57;20132;-79
2021/07/30 13:49:32;;;;;;;4.10;3.70;;;;;;;30.93;34.25;95579.69;5187830;57;20133;-79
2021/07/30 13:54:35;;;;;;;4.68;4.03;;;;;;;31.28;37.77;95576.13;5174087;57;20128;-79
2021/07/30 13:59:38;;;;;;;3.58;3.28;;;;;;;32.12;34.45;95574.78;5167764;57;20169;-79
2021/07/30 14:04:41;;;;;;;5.53;3.72;;;;;;;32.30;37.68;95584.44;5155026;57;20149;-79
2021/07/30 14:09:43;;;;;;;3.78;3.47;;;;;;;33.14;34.28;95568.50;5170338;57;20128;-80
2021/07/30 14:14:45;;;;;;;3.97;3.60;;;;;;;33.02;36.98;95562.13;5176252;57;20204;-79
2021/07/30 14:19:48;;;;;;;4.88;3.45;;;;;;;32.90;33.06;95561.41;5146110;57;20125;-79
2021/07/30 14:24:50;;;;;;;3.80;3.38;;;;;;;32.04;32.57;95557.94;5144082;57;20139;-80
2021/07/30 14:29:53;;;;;;;3.90;3.60;;;;;;;32.99;33.53;95549.78;5146078;57;20117;-80
2021/07/30 14:35:09;;;;;;;5.50;3.75;;;;;;;33.31;31.94;95547.22;5146233;57;20227;-80
2021/07/30 14:40:12;;;;;;;4.43;3.90;;;;;;;32.65;34.87;95539.28;5137153;57;20695;-80
2021/07/30 14:45:14;;;;;;;4.85;3.65;;;;;;;32.07;36.41;95536.66;5170145;57;20128;-80
2021/07/30 14:50:16;;;;;;;4.38;3.97;;;;;;;31.72;33.93;95547.41;5178180;57;20134;-78
2021/07/30 14:55:19;;;;;;;3.97;3.55;;;;;;;32.06;35.21;95546.63;5177698;57;20129;-78
2021/07/30 15:00:21;;;;;;;6.05;4.30;;;;;;;31.24;34.03;95538.72;5177348;57;20124;-79
2021/07/30 15:05:23;;;;;;;4.32;3.92;;;;;;;32.24;34.24;95529.75;5166555;57;20129;-79
2021/07/30 15:10:26;;;;;;;5.55;3.97;;;;;;;32.27;34.36;95532.09;5166105;57;20129;-79
2021/07/30 15:15:29;;;;;;;4.40;4.00;;;;;;;32.27;36.04;95534.97;5164160;57;20120;-79
2021/07/30 15:20:31;;;;;;;4.85;3.55;;;;;;;32.35;35.01;95532.56;5183423;57;20115;-79
2021/07/30 15:25:34;;;;;;;4.40;4.00;;;;;;;32.16;35.47;95520.72;5183283;57;20124;-79
2021/07/30 15:30:37;;;;;;;4.05;3.65;;;;;;;32.36;34.44;95521.88;5177212;57;20133;-79
2021/07/30 15:40:32;;;;;;;3.92;3.53;;;;;;;31.95;33.88;95506.59;5392770;54;20269;-81
2021/07/30 15:45:35;;;;;;;5.07;4.22;;;;;;;31.67;37.60;95499.97;5361881;55;20109;-78
2021/07/30 15:50:38;;;;;;;4.70;4.25;;;;;;;30.59;38.42;95494.00;5346985;55;20153;-81
2021/07/30 15:55:40;;;;;;;5.32;3.85;;;;;;;30.80;38.52;95497.50;5341679;55;20109;-79
2021/07/30 16:00:43;;;;;;;5.75;4.07;;;;;;;30.87;39.35;95485.13;5344644;55;20620;-79
2021/07/30 16:05:46;;;;;;;5.25;3.92;;;;;;;30.72;38.60;95496.25;5344946;55;20122;-80
2021/07/30 16:10:49;;;;;;;4.50;4.13;;;;;;;30.51;38.39;95499.91;5347645;55;20223;-80
2021/07/30 16:15:52;;;;;;;6.47;3.92;;;;;;;30.13;40.23;95488.88;5344898;55;20305;-80
2021/07/30 16:20:56;;;;;;;4.28;3.90;;;;;;;29.95;42.06;95505.53;5362063;55;20147;-81
2021/07/30 16:25:58;;;;;;;6.13;4.10;;;;;;;29.84;39.39;95485.53;5369306;55;20170;-81
2021/07/30 16:31:01;;;;;;;5.05;4.55;;;;;;;29.59;40.11;95492.44;5373860;55;20147;-80
2021/07/30 16:36:03;;;;;;;5.25;4.47;;;;;;;29.85;41.53;95487.78;5371898;55;20103;-81
2021/07/30 16:41:12;;;;;;;4.40;4.00;;;;;;;30.08;40.66;95482.16;5363506;55;20678;-79
2021/07/30 16:46:16;;;;;;;4.60;4.20;;;;;;;30.04;41.46;95472.59;5357571;55;20105;-80
2021/07/30 16:51:18;;;;;;;4.88;4.30;;;;;;;29.72;41.43;95463.41;5335453;55;20791;-81
2021/07/30 16:56:21;;;;;;;4.78;4.28;;;;;;;29.39;43.46;95478.97;5339089;55;20127;-80
2021/07/30 17:01:23;;;;;;;8.77;4.85;;;;;;;29.47;42.86;95470.97;5348488;55;20114;-81
2021/07/30 17:06:26;;;;;;;5.32;4.10;;;;;;;29.65;43.12;95464.38;5348878;55;20269;-80
2021/07/30 17:11:29;;;;;;;4.72;3.92;;;;;;;29.77;43.03;95453.81;5344411;55;20108;-81
2021/07/30 17:16:32;;;;;;;5.90;4.90;;;;;;;29.52;44.82;95452.78;5328252;55;20313;-79
2021/07/30 17:21:34;;;;;;;7.38;4.68;;;;;;;28.87;44.76;95470.38;5358146;55;20153;-80
2021/07/30 17:26:37;;;;;;;10.50;4.78;;;;;;;28.66;46.20;95458.94;5354897;55;20127;-82
2021/07/30 17:31:40;;;;;;;7.93;5.05;;;;;;;28.42;48.80;95452.28;5362941;55;20113;-81
2021/07/30 17:36:44;;;;;;;8.45;4.93;;;;;;;28.09;48.58;95462.69;5354830;55;20130;-81
2021/07/30 17:41:46;;;;;;;9.85;4.47;;;;;;;27.77;49.16;95472.41;5364579;55;20108;-80
2021/07/30 17:46:49;;;;;;;7.60;4.80;;;;;;;27.65;53.21;95485.72;5357427;55;20117;-80
2021/07/30 17:51:51;;;;;;;51.97;6.40;;;;;;;27.36;52.84;95476.38;5331816;55;20121;-81
2021/07/30 17:56:53;;;;;;;28.77;5.65;;;;;;;27.17;53.89;95462.91;5338863;55;20661;-79
2021/07/30 18:01:56;;;;;;;22.13;6.53;;;;;;;27.09;56.26;95467.22;5339867;55;20109;-79
2021/07/30 18:06:59;;;;;;;9.57;5.13;;;;;;;26.91;56.13;95464.50;5342665;55;20247;-82
2021/07/30 18:12:04;;;;;;;7.07;5.30;;;;;;;26.60;54.97;95471.22;5341355;55;20113;-80
2021/07/30 18:17:06;;;;;;;6.40;5.10;;;;;;;26.46;53.87;95489.97;5340478;55;20121;-80
2021/07/30 18:22:10;;;;;;;8.60;5.18;;;;;;;26.35;55.01;95484.84;5344857;55;20127;-80
2021/07/30 18:27:12;;;;;;;8.63;5.13;;;;;;;26.22;55.65;95492.34;5337940;55;20118;-81
2021/07/30 18:32:14;;;;;;;8.52;5.28;;;;;;;26.20;54.96;95514.84;5345269;55;20214;-81
2021/07/30 18:37:25;;;;;;;9.25;5.55;;;;;;;26.10;55.54;95531.03;5337936;55;20117;-79
2021/07/30 18:42:28;;;;;;;7.53;5.50;;;;;;;25.80;57.37;95556.09;5330982;55;20243;-79
2021/07/30 18:47:30;;;;;;;6.10;4.78;;;;;;;24.88;59.12;95628.88;5329811;55;20114;-79
2021/07/30 18:52:33;;;;;;;7.35;3.65;;;;;;;24.21;60.81;95639.91;5322535;55;20862;-80
2021/07/30 18:57:36;;;;;;;6.70;4.03;;;;;;;23.82;62.54;95626.44;5327934;55;20113;-80
2021/07/30 19:02:39;;;;;;;3.75;3.45;;;;;;;23.55;63.31;95636.63;5328618;55;20118;-80
2021/07/30 19:07:41;;;;;;;4.72;3.47;;;;;;;22.97;65.69;95654.44;5327144;55;20230;-77
2021/07/30 19:12:43;;;;;;;3.67;3.38;;;;;;;22.67;67.23;95665.63;5327721;55;20117;-80
2021/07/30 19:17:46;;;;;;;4.40;3.30;;;;;;;22.42;67.85;95676.59;5321363;55;20113;-79
2021/07/30 19:22:48;;;;;;;4.43;2.90;;;;;;;22.31;68.24;95696.63;5321712;55;20131;-75
2021/07/30 21:52:35;;;;;;;2.78;2.58;;;;;;;20.71;71.20;95727.47;1534087;52;20136;-75
2021/07/30 21:57:40;;;;;;;3.67;3.30;;;;;;;20.70;74.57;95737.19;5183236;57;20242;-76
2021/07/30 22:02:44;;;;;;;2.70;2.47;;;;;;;20.38;78.85;95714.16;5164973;57;20164;-74
2021/07/30 22:30:37;;;;;;;3.10;2.58;;;;;;;20.20;81.90;95731.09;5642892;45;20146;-74
2021/07/30 22:35:39;;;;;;;4.13;2.22;;;;;;;20.15;81.54;95729.91;5176316;57;20169;-74
2021/07/30 22:45:45;;;;;;;2.78;2.50;;;;;;;19.94;82.89;95752.25;5185880;56;20133;-74
2021/07/30 22:50:48;;;;;;;5.80;2.60;;;;;;;19.73;83.95;95748.53;5198971;57;20593;-73
2021/07/30 22:55:51;;;;;;;3.88;2.40;;;;;;;19.64;83.97;95757.38;5196589;57;20245;-73
2021/07/30 23:00:53;;;;;;;2.60;2.40;;;;;;;19.82;82.44;95758.59;5179591;57;20255;-74
2021/07/30 23:05:56;;;;;;;2.95;2.65;;;;;;;19.77;82.92;95765.81;5179148;57;20135;-74
2021/07/30 23:10:58;;;;;;;2.88;2.22;;;;;;;19.78;84.20;95780.59;5179224;57;20145;-74
2021/07/30 23:16:05;;;;;;;3.50;2.97;;;;;;;19.69;85.13;95781.75;5178934;57;20123;-74
2021/07/30 23:21:10;;;;;;;2.60;2.40;;;;;;;19.74;85.61;95794.91;5179360;57;20133;-74
2021/07/30 23:26:12;;;;;;;5.50;2.75;;;;;;;19.49;85.63;95795.59;5178790;57;20124;-74
2021/07/30 23:31:15;;;;;;;2.88;2.67;;;;;;;19.63;86.19;95806.31;5170460;57;20220;-74
2021/07/30 23:36:41;;;;;;;3.15;2.83;;;;;;;19.54;84.59;95809.50;5178840;57;20175;-75
2021/07/30 23:41:44;;;;;;;2.83;2.60;;;;;;;19.58;83.95;95807.19;5178655;57;20137;-74
2021/07/30 23:46:46;;;;;;;2.78;2.38;;;;;;;19.57;83.43;95819.66;5169894;57;20155;-74
2021/07/30 23:51:48;;;;;;;2.40;2.20;;;;;;;19.53;83.64;95822.03;5170233;57;20586;-74
2021/07/30 23:56:51;;;;;;;2.92;2.40;;;;;;;19.68;83.14;95815.91;5178386;57;20133;-74
